Time;durP1;ratioP1;P1;durP2;ratioP2;P2;SDS_P1;SDS_P2;PMS_P1;PMS_P2;Temp;Humidity;BMP_temperature;BMP_pressure;BME280_temperature;BME280_humidity;BME280_pressure;Samples;Min_cycle;Max_cycle;Signal;HPM_P1;HPM_P2
2022/05/05 00:02:23;;;;;;;;;;;;;;;20.56;47.52;101162.69;5113228;27;2740;-71
2022/05/05 00:04:49;;;;;;;;;;;;;;;20.56;47.49;101163.47;5116829;27;2839;-73
2022/05/05 00:07:16;;;;;;;;;;;;;;;20.56;47.51;101163.47;5116593;27;2772;-73
2022/05/05 00:09:42;;;;;;;;;;;;;;;20.56;47.57;101165.59;5120053;27;2683;-72
2022/05/05 00:14:55;;;;;;;;;;;;;;;20.55;47.54;101166.94;5124597;27;2798;-71
2022/05/05 00:17:21;;;;;;;;;;;;;;;20.55;47.45;101164.84;5114167;27;2721;-70
2022/05/05 00:19:48;;;;;;;;;;;;;;;20.54;47.45;101176.97;5112160;27;2781;-73
2022/05/05 00:22:14;;;;;;;;;;;;;;;20.54;47.58;101174.84;5116726;27;2926;-70
2022/05/05 00:24:41;;;;;;;;;;;;;;;20.54;47.61;101174.09;5110915;27;3070;-71
2022/05/05 00:27:07;;;;;;;;;;;;;;;20.53;47.55;101182.00;5117425;27;3002;-71
2022/05/05 00:29:34;;;;;;;;;;;;;;;20.53;47.57;101193.50;5110613;27;3194;-70
2022/05/05 00:32:00;;;;;;;;;;;;;;;20.53;47.48;101189.88;5115445;27;2636;-72
2022/05/05 00:34:26;;;;;;;;;;;;;;;20.51;47.46;101185.50;5111946;27;2811;-72
2022/05/05 00:36:53;;;;;;;;;;;;;;;20.51;47.54;101185.50;5123129;27;2928;-71
2022/05/05 00:39:19;;;;;;;;;;;;;;;20.52;47.59;101186.25;5120074;27;2875;-71
2022/05/05 00:41:46;;;;;;;;;;;;;;;20.51;47.42;101191.25;5104636;27;2940;-71
2022/05/05 00:44:12;;;;;;;;;;;;;;;20.50;47.50;101184.03;5115975;27;3165;-70
2022/05/05 00:46:39;;;;;;;;;;;;;;;20.51;47.50;101184.78;5118788;27;2729;-70
2022/05/05 00:49:05;;;;;;;;;;;;;;;20.51;47.44;101190.53;5120424;27;2818;-71
2022/05/05 00:51:31;;;;;;;;;;;;;;;20.51;47.58;101193.41;5117360;27;2860;-72
2022/05/05 00:53:58;;;;;;;;;;;;;;;20.50;47.54;101186.91;5114808;27;2762;-70
2022/05/05 00:56:24;;;;;;;;;;;;;;;20.50;47.59;101195.53;5118275;27;2777;-73
2022/05/05 00:58:52;;;;;;;;;;;;;;;20.49;47.60;101202.66;5094634;27;2731;-70
2022/05/05 01:01:19;;;;;;;;;;;;;;;20.49;47.54;101188.28;5121454;27;2588;-70
2022/05/05 01:03:45;;;;;;;;;;;;;;;20.49;47.43;101194.03;5122734;27;2760;-70
2022/05/05 01:06:12;;;;;;;;;;;;;;;20.50;47.56;101194.78;5119114;27;3172;-69
2022/05/05 01:08:38;;;;;;;;;;;;;;;20.49;47.51;101194.03;5116588;27;3026;-69
2022/05/05 01:11:04;;;;;;;;;;;;;;;20.48;47.40;101183.94;5119434;27;2433;-69
2022/05/05 01:13:31;;;;;;;;;;;;;;;20.48;47.52;101186.81;5112772;27;2922;-69
2022/05/05 01:15:57;;;;;;;;;;;;;;;20.49;47.64;101187.53;5103785;27;3286;-69
2022/05/05 01:18:24;;;;;;;;;;;;;;;20.48;47.56;101181.03;5118260;27;2632;-71
2022/05/05 01:20:52;;;;;;;;;;;;;;;20.47;47.52;101179.53;5114979;27;3087;-72
2022/05/05 01:23:19;;;;;;;;;;;;;;;20.47;47.59;101185.28;5114023;27;2858;-71
2022/05/05 01:28:31;;;;;;;;;;;;;;;20.47;47.43;101182.41;5113573;27;2708;-73
2022/05/05 01:30:57;;;;;;;;;;;;;;;20.46;47.60;101180.94;5114587;27;2220;-73
2022/05/05 01:33:24;;;;;;;;;;;;;;;20.47;47.55;101184.56;5121800;27;2760;-74
2022/05/05 01:35:51;;;;;;;;;;;;;;;20.45;47.43;101182.31;5119619;27;2956;-74
2022/05/05 01:38:18;;;;;;;;;;;;;;;20.45;47.51;101182.31;5119648;27;2772;-70
2022/05/05 01:40:47;;;;;;;;;;;;;;;20.46;47.44;101197.47;5119602;27;3247;-71
2022/05/05 01:43:14;;;;;;;;;;;;;;;20.45;47.45;101205.31;5122160;27;2963;-69
2022/05/05 01:45:41;;;;;;;;;;;;;;;20.45;47.51;101216.09;5112418;27;2637;-74
2022/05/05 01:48:07;;;;;;;;;;;;;;;20.45;47.55;101227.59;5124597;27;2429;-73
2022/05/05 01:50:34;;;;;;;;;;;;;;;20.45;47.49;101234.09;5118815;27;2788;-72
2022/05/05 01:53:00;;;;;;;;;;;;;;;20.44;47.52;101221.09;5113493;27;2823;-72
2022/05/05 01:55:27;;;;;;;;;;;;;;;20.44;47.59;101229.75;5114088;27;2775;-71
2022/05/05 01:57:53;;;;;;;;;;;;;;;20.44;47.51;101232.59;5113376;27;3061;-71
2022/05/05 02:00:20;;;;;;;;;;;;;;;20.44;47.56;101237.63;5097301;27;2931;-73
2022/05/05 02:02:46;;;;;;;;;;;;;;;20.43;47.49;101236.88;5123712;27;3094;-75
2022/05/05 02:05:13;;;;;;;;;;;;;;;20.44;47.47;101238.38;5102867;27;3138;-72
2022/05/05 02:07:39;;;;;;;;;;;;;;;20.42;47.49;101246.88;5113465;27;2752;-70
2022/05/05 02:10:07;;;;;;;;;;;;;;;20.43;47.48;101245.50;5117774;27;2791;-70
2022/05/05 02:12:35;;;;;;;;;;;;;;;20.42;47.60;101264.16;5119119;27;2829;-73
2022/05/05 02:15:02;;;;;;;;;;;;;;;20.42;47.40;101264.16;5119885;27;3125;-74
2022/05/05 02:17:29;;;;;;;;;;;;;;;20.42;47.58;101258.38;5119258;27;2633;-74
2022/05/05 02:19:55;;;;;;;;;;;;;;;20.42;47.62;101263.41;5111111;27;3157;-74
2022/05/05 02:22:22;;;;;;;;;;;;;;;20.42;47.44;101261.28;5111178;27;2985;-74
2022/05/05 02:24:49;;;;;;;;;;;;;;;20.41;47.58;101245.41;5108833;27;2763;-74
2022/05/05 02:27:16;;;;;;;;;;;;;;;20.41;47.62;101251.16;5107646;27;2767;-72
2022/05/05 02:29:42;;;;;;;;;;;;;;;20.41;47.60;101262.66;5119545;27;2788;-71
2022/05/05 02:32:09;;;;;;;;;;;;;;;20.41;47.58;101267.66;5117338;27;2747;-74
2022/05/05 02:34:35;;;;;;;;;;;;;;;20.40;47.63;101257.53;5120349;28;2725;-74
2022/05/05 02:39:47;;;;;;;;;;;;;;;20.40;47.52;101266.16;5119047;27;2803;-72
2022/05/05 02:42:13;;;;;;;;;;;;;;;20.40;47.58;101266.16;5115632;27;2625;-70
2022/05/05 02:44:39;;;;;;;;;;;;;;;20.40;47.58;101274.81;5116933;27;2561;-70
2022/05/05 02:47:06;;;;;;;;;;;;;;;20.39;47.54;101276.94;5122316;27;2851;-70
2022/05/05 02:49:32;;;;;;;;;;;;;;;20.40;47.52;101272.66;5126546;27;2790;-70
2022/05/05 02:51:59;;;;;;;;;;;;;;;20.41;47.46;101274.16;5116450;27;2838;-72
2022/05/05 02:57:10;;;;;;;;;;;;;;;20.43;47.29;101273.50;5118889;27;2858;-69
2022/05/05 02:59:37;;;;;;;;;;;;;;;20.44;47.16;101269.28;5118783;27;2784;-71
2022/05/05 03:02:03;;;;;;;;;;;;;;;20.43;47.03;101271.41;5122327;27;2735;-70
2022/05/05 03:04:29;;;;;;;;;;;;;;;20.44;47.21;101277.91;5120716;27;2835;-70
2022/05/05 03:06:56;;;;;;;;;;;;;;;20.44;47.11;101278.63;5115372;27;3242;-69
2022/05/05 03:09:22;;;;;;;;;;;;;;;20.43;47.06;101277.16;5122671;27;2800;-70
2022/05/05 03:11:48;;;;;;;;;;;;;;;20.43;47.20;101280.03;5123584;27;2736;-72
2022/05/05 03:14:15;;;;;;;;;;;;;;;20.43;47.11;101282.91;5116136;27;2847;-72
2022/05/05 03:16:41;;;;;;;;;;;;;;;20.44;47.13;101281.50;5114662;27;2722;-73
2022/05/05 03:19:08;;;;;;;;;;;;;;;20.44;47.09;101272.88;5113197;27;2726;-71
2022/05/05 03:21:34;;;;;;;;;;;;;;;20.44;47.07;101272.16;5122721;27;2666;-70
2022/05/05 03:24:00;;;;;;;;;;;;;;;20.44;46.99;101281.50;5114529;27;2822;-70
2022/05/05 03:26:27;;;;;;;;;;;;;;;20.43;47.24;101280.03;5120501;27;2723;-73
2022/05/05 03:28:53;;;;;;;;;;;;;;;20.44;47.22;101295.91;5120876;27;2805;-71
2022/05/05 03:31:19;;;;;;;;;;;;;;;20.44;47.28;101295.91;5115094;27;2832;-71
2022/05/05 03:33:46;;;;;;;;;;;;;;;20.44;47.26;101301.66;5120487;27;2711;-71
2022/05/05 03:36:12;;;;;;;;;;;;;;;20.42;47.13;101292.91;5112764;27;3149;-71
2022/05/05 03:38:39;;;;;;;;;;;;;;;20.43;47.27;101294.41;5116045;27;2723;-71
2022/05/05 03:41:05;;;;;;;;;;;;;;;20.43;47.24;101288.66;5118277;27;2823;-70
2022/05/05 03:43:32;;;;;;;;;;;;;;;20.42;47.35;101292.91;5115606;27;2935;-70
2022/05/05 03:46:04;;;;;;;;;;;;;;;20.42;47.46;101292.91;5128360;27;2746;-72
2022/05/05 03:48:31;;;;;;;;;;;;;;;20.42;47.38;101295.78;5115729;27;3175;-70
2022/05/05 03:50:57;;;;;;;;;;;;;;;20.42;47.42;101295.78;5119906;27;2966;-70
2022/05/05 03:53:23;;;;;;;;;;;;;;;20.42;47.45;101298.66;5121246;27;3032;-71
2022/05/05 03:55:50;;;;;;;;;;;;;;;20.42;47.36;101298.66;5120877;27;2975;-70
2022/05/05 03:58:16;;;;;;;;;;;;;;;20.41;47.50;101308.69;5125573;27;2548;-71
2022/05/05 04:00:43;;;;;;;;;;;;;;;20.41;47.46;101308.69;5116176;27;2852;-71
2022/05/05 04:05:58;;;;;;;;;;;;;;;20.40;47.59;101315.81;5123635;27;3000;-71
2022/05/05 04:08:25;;;;;;;;;;;;;;;20.41;47.74;101320.19;5113917;27;2757;-69
2022/05/05 04:10:52;;;;;;;;;;;;;;;20.40;47.58;101318.69;5111528;27;2977;-74
2022/05/05 04:13:19;;;;;;;;;;;;;;;20.40;47.64;101327.31;5119957;27;2768;-75
2022/05/05 04:15:45;;;;;;;;;;;;;;;20.40;47.54;101324.44;5116650;27;3221;-75
2022/05/05 04:18:12;;;;;;;;;;;;;;;20.40;47.56;101315.81;5116844;27;2711;-75
2022/05/05 04:20:39;;;;;;;;;;;;;;;20.40;47.58;101324.44;5123365;27;2560;-73
2022/05/05 04:23:06;;;;;;;;;;;;;;;20.39;47.65;101334.47;5111256;27;2719;-72
2022/05/05 04:25:52;;;;;;;;;;;;;;;20.39;47.73;101333.72;5117540;27;2314;-73
2022/05/05 04:28:18;;;;;;;;;;;;;;;20.38;47.73;101344.47;5098397;27;2355;-72
2022/05/05 04:30:45;;;;;;;;;;;;;;;20.38;47.54;101338.72;5105730;27;2811;-70
2022/05/05 04:33:12;;;;;;;;;;;;;;;20.39;47.70;101350.97;5100774;27;2800;-74
2022/05/05 04:35:39;;;;;;;;;;;;;;;20.37;47.79;101348.72;5116486;27;2710;-70
2022/05/05 04:38:05;;;;;;;;;;;;;;;20.37;47.72;101342.97;5122680;27;2886;-72
2022/05/05 04:40:31;;;;;;;;;;;;;;;20.36;47.85;101350.09;5119206;27;3042;-68
2022/05/05 04:42:58;;;;;;;;;;;;;;;20.36;47.78;101352.97;5115868;27;2776;-70
2022/05/05 04:45:24;;;;;;;;;;;;;;;20.37;47.75;101351.63;5122986;27;2825;-71
2022/05/05 04:47:50;;;;;;;;;;;;;;;20.36;47.84;101347.22;5108174;27;2988;-72
2022/05/05 04:50:17;;;;;;;;;;;;;;;20.35;47.90;101345.75;5121057;27;2924;-69
2022/05/05 04:52:44;;;;;;;;;;;;;;;20.36;47.79;101346.50;5109539;27;2951;-75
2022/05/05 04:55:10;;;;;;;;;;;;;;;20.36;47.80;101347.22;5116746;27;2957;-70
2022/05/05 04:57:38;;;;;;;;;;;;;;;20.35;47.81;101342.88;5102990;27;3035;-70
2022/05/05 05:00:05;;;;;;;;;;;;;;;20.35;47.78;101345.00;5109584;27;2940;-78
2022/05/05 05:02:31;;;;;;;;;;;;;;;20.39;47.70;101345.22;5115666;27;2748;-60
2022/05/05 05:04:58;;;;;;;;;;;;;;;20.32;47.93;101343.38;5105725;27;2837;-61
2022/05/05 05:07:24;;;;;;;;;;;;;;;20.32;48.05;101340.50;5097579;27;2915;-63
2022/05/05 05:09:51;;;;;;;;;;;;;;;20.38;47.84;101349.47;5117184;27;2610;-65
2022/05/05 05:12:17;;;;;;;;;;;;;;;20.44;47.72;101347.69;5114304;27;2898;-63
2022/05/05 05:14:43;;;;;;;;;;;;;;;20.41;48.63;101351.84;5119770;27;2931;-63
2022/05/05 05:17:10;;;;;;;;;;;;;;;20.42;48.32;101350.44;5113356;27;2951;-66
2022/05/05 05:19:36;;;;;;;;;;;;;;;20.43;48.61;101351.94;5119114;27;2859;-65
2022/05/05 05:22:05;;;;;;;;;;;;;;;20.49;48.47;101354.41;5121084;27;2708;-67
2022/05/05 05:24:32;;;;;;;;;;;;;;;20.54;48.70;101366.88;5108595;27;2895;-63
2022/05/05 05:26:58;;;;;;;;;;;;;;;20.43;48.76;101363.47;5116945;27;2737;-66
2022/05/05 05:29:25;;;;;;;;;;;;;;;20.43;48.66;101363.47;5117889;27;2982;-66
2022/05/05 05:31:51;;;;;;;;;;;;;;;20.41;48.85;101377.72;5119887;27;2508;-67
2022/05/05 05:34:17;;;;;;;;;;;;;;;20.41;48.64;101376.97;5119428;27;2608;-66
2022/05/05 05:36:44;;;;;;;;;;;;;;;20.40;48.79;101381.97;5116180;27;2620;-68
2022/05/05 05:39:10;;;;;;;;;;;;;;;20.41;48.80;101394.22;5120628;27;2926;-68
2022/05/05 05:41:36;;;;;;;;;;;;;;;20.40;49.01;101399.22;5121101;27;2461;-68
2022/05/05 05:44:03;;;;;;;;;;;;;;;20.40;49.15;101402.09;5116695;27;2722;-67
2022/05/05 05:46:29;;;;;;;;;;;;;;;20.37;49.67;101406.25;5115690;27;2851;-68
2022/05/05 05:48:56;;;;;;;;;;;;;;;20.36;49.48;101401.88;5121957;27;2934;-67
2022/05/05 05:51:29;;;;;;;;;;;;;;;20.40;49.21;101399.22;5114668;27;2584;-67
2022/05/05 05:53:55;;;;;;;;;;;;;;;20.27;50.89;101399.94;5113829;27;2237;-67
2022/05/05 05:56:22;;;;;;;;;;;;;;;19.53;53.26;101400.78;5124771;27;2180;-67
2022/05/05 05:58:48;;;;;;;;;;;;;;;19.73;53.10;101406.97;5108036;27;2105;-69
2022/05/05 06:01:14;;;;;;;;;;;;;;;20.00;52.04;101409.97;5118411;27;2171;-70
2022/05/05 06:03:56;;;;;;;;;;;;;;;20.24;51.37;101421.34;5122918;27;2218;-69
2022/05/05 06:06:23;;;;;;;;;;;;;;;20.35;51.16;101426.28;5117400;27;2457;-70
2022/05/05 06:08:49;;;;;;;;;;;;;;;20.45;50.89;101423.94;5110335;27;3443;-72
2022/05/05 06:11:17;;;;;;;;;;;;;;;20.47;50.61;101437.72;5113553;27;2710;-73
2022/05/05 06:13:43;;;;;;;;;;;;;;;20.41;50.93;101440.25;5115056;27;2642;-67
2022/05/05 06:16:10;;;;;;;;;;;;;;;19.90;52.20;101440.25;5121827;27;2570;-68
2022/05/05 06:18:36;;;;;;;;;;;;;;;19.22;54.71;101433.44;5117646;27;2477;-68
2022/05/05 06:21:03;;;;;;;;;;;;;;;18.95;54.93;101439.69;5126676;27;2179;-68
2022/05/05 06:23:29;;;;;;;;;;;;;;;18.71;55.02;101445.38;5124955;27;2601;-69
2022/05/05 06:25:56;;;;;;;;;;;;;;;18.65;55.17;101450.75;5125013;27;2580;-68
2022/05/05 06:28:22;;;;;;;;;;;;;;;18.84;54.82;101453.41;5112287;27;3248;-69
2022/05/05 06:30:48;;;;;;;;;;;;;;;19.43;53.14;101452.63;5116287;27;3363;-66
2022/05/05 06:33:15;;;;;;;;;;;;;;;19.78;51.94;101451.81;5119578;27;2521;-65
2022/05/05 06:35:41;;;;;;;;;;;;;;;19.97;51.34;101450.72;5120914;27;2581;-64
2022/05/05 06:38:07;;;;;;;;;;;;;;;20.12;50.54;101452.31;5120509;27;2344;-64
2022/05/05 06:40:34;;;;;;;;;;;;;;;20.21;50.03;101457.13;5122791;28;2530;-64
2022/05/05 06:43:01;;;;;;;;;;;;;;;20.27;49.95;101457.44;5120034;28;2605;-64
2022/05/05 06:45:27;;;;;;;;;;;;;;;20.29;49.71;101454.69;5122705;28;2564;-63
2022/05/05 06:47:54;;;;;;;;;;;;;;;20.32;49.47;101459.19;5118853;28;2664;-63
2022/05/05 06:50:21;;;;;;;;;;;;;;;20.33;49.44;101460.69;5122946;28;2578;-64
2022/05/05 06:52:48;;;;;;;;;;;;;;;20.35;49.20;101465.81;5124266;27;2352;-64
2022/05/05 06:55:15;;;;;;;;;;;;;;;20.36;49.17;101470.16;5124114;28;1582;-66
2022/05/05 06:57:43;;;;;;;;;;;;;;;20.37;49.03;101469.53;5119258;28;2621;-65
2022/05/05 07:00:11;;;;;;;;;;;;;;;20.38;48.98;101476.78;5120608;28;2674;-66
2022/05/05 07:02:37;;;;;;;;;;;;;;;20.39;48.98;101478.28;5121873;28;2625;-65
2022/05/05 07:07:49;;;;;;;;;;;;;;;20.42;48.81;101482.78;5118737;28;2667;-66
2022/05/05 07:13:02;;;;;;;;;;;;;;;20.45;48.78;101487.25;5118344;28;2572;-63
2022/05/05 07:15:28;;;;;;;;;;;;;;;20.45;48.73;101484.38;5125146;28;1617;-63
2022/05/05 07:17:55;;;;;;;;;;;;;;;20.45;48.69;101495.88;5120753;28;1704;-64
2022/05/05 07:20:23;;;;;;;;;;;;;;;20.45;48.70;101483.63;5119379;28;2505;-66
2022/05/05 07:22:51;;;;;;;;;;;;;;;20.46;48.59;101494.50;5124784;28;1975;-65
2022/05/05 07:25:19;;;;;;;;;;;;;;;20.46;48.61;101496.66;5120541;28;2671;-65
2022/05/05 07:27:45;;;;;;;;;;;;;;;20.46;48.47;101496.66;5099406;27;2826;-65
2022/05/05 07:30:12;;;;;;;;;;;;;;;20.47;48.45;101496.00;5127583;27;2208;-65
2022/05/05 07:32:39;;;;;;;;;;;;;;;20.46;48.46;101499.53;5124937;27;2564;-63
2022/05/05 07:35:05;;;;;;;;;;;;;;;20.47;48.39;101496.00;5126964;27;2490;-63
2022/05/05 07:37:32;;;;;;;;;;;;;;;20.47;48.39;101501.75;5125659;27;1585;-63
2022/05/05 07:39:58;;;;;;;;;;;;;;;20.47;48.41;101507.50;5121992;27;2795;-63
2022/05/05 07:42:25;;;;;;;;;;;;;;;20.48;48.26;101497.50;5125538;27;2679;-63
2022/05/05 07:44:51;;;;;;;;;;;;;;;20.49;48.44;101504.00;5120636;27;3405;-69
2022/05/05 07:47:18;;;;;;;;;;;;;;;20.42;48.29;101511.53;5119751;27;2737;-74
2022/05/05 07:49:44;;;;;;;;;;;;;;;20.48;48.44;101509.00;5116094;27;2665;-81
2022/05/05 07:52:10;;;;;;;;;;;;;;;20.72;48.01;101508.88;5119476;27;2575;-79
2022/05/05 07:54:43;;;;;;;;;;;;;;;20.85;48.06;101516.81;5105155;27;2704;-74
2022/05/05 07:57:12;;;;;;;;;;;;;;;20.91;47.96;101513.50;5127547;27;2653;-76
2022/05/05 07:59:38;;;;;;;;;;;;;;;20.96;48.21;101521.00;5124747;27;2588;-77
2022/05/05 08:02:05;;;;;;;;;;;;;;;21.05;48.16;101516.41;5128564;27;3083;-72
2022/05/05 08:04:32;;;;;;;;;;;;;;;21.03;48.35;101514.19;5126775;27;2288;-73
2022/05/05 08:06:58;;;;;;;;;;;;;;;21.04;48.41;101509.16;5123935;27;2572;-81
2022/05/05 08:09:24;;;;;;;;;;;;;;;21.07;48.39;101513.66;5122148;27;2703;-70
2022/05/05 08:12:11;;;;;;;;;;;;;;;21.12;48.61;101515.38;5125800;27;2779;-68
2022/05/05 08:14:37;;;;;;;;;;;;;;;21.12;48.92;101524.00;5118447;27;3478;-70
2022/05/05 08:17:03;;;;;;;;;;;;;;;21.10;49.00;101521.03;5128340;27;2402;-70
2022/05/05 08:19:30;;;;;;;;;;;;;;;21.14;48.91;101506.81;5102519;27;2850;-63
2022/05/05 08:21:56;;;;;;;;;;;;;;;21.24;49.38;101516.03;5124195;27;2894;-61
2022/05/05 08:29:52;;;;;;;;;;;;;;;20.92;49.15;101515.75;5119308;27;2903;-61
2022/05/05 08:32:19;;;;;;;;;;;;;;;20.66;49.44;101520.06;5115612;27;2881;-60
2022/05/05 08:34:46;;;;;;;;;;;;;;;20.49;49.39;101527.00;5124575;27;2750;-61
2022/05/05 08:37:12;;;;;;;;;;;;;;;20.36;49.53;101525.56;5104316;27;2922;-64
2022/05/05 08:39:38;;;;;;;;;;;;;;;20.12;49.53;101529.94;5118436;27;2976;-66
2022/05/05 08:42:05;;;;;;;;;;;;;;;19.70;49.69;101531.78;5119364;27;2919;-66
2022/05/05 08:44:31;;;;;;;;;;;;;;;19.76;49.63;101523.53;5124075;27;2874;-65
2022/05/05 08:46:58;;;;;;;;;;;;;;;19.87;49.28;101528.50;5125162;27;2682;-65
2022/05/05 08:49:24;;;;;;;;;;;;;;;19.98;49.09;101519.09;5102895;27;2850;-66
2022/05/05 08:51:51;;;;;;;;;;;;;;;20.01;48.81;101522.84;5108494;27;2578;-66
2022/05/05 08:54:18;;;;;;;;;;;;;;;20.07;48.58;101534.69;5116540;27;2709;-65
2022/05/05 08:56:45;;;;;;;;;;;;;;;20.04;48.62;101528.09;5097285;27;2616;-65
2022/05/05 08:59:13;;;;;;;;;;;;;;;20.04;48.58;101530.97;5116545;27;2600;-65
2022/05/05 09:01:40;;;;;;;;;;;;;;;20.07;48.52;101526.81;5122030;27;2529;-67
2022/05/05 09:04:06;;;;;;;;;;;;;;;20.02;48.52;101532.94;5128402;27;2741;-69
2022/05/05 09:06:42;;;;;;;;;;;;;;;20.05;48.33;101526.69;5112853;27;2716;-68
2022/05/05 09:09:24;;;;;;;;;;;;;;;20.12;48.34;101529.94;5120726;27;2628;-68
2022/05/05 09:12:26;;;;;;;;;;;;;;;20.15;48.02;101534.41;5115261;27;2699;-64
2022/05/05 09:14:53;;;;;;;;;;;;;;;19.70;47.69;101534.66;5036964;28;2971;-61
2022/05/05 09:17:23;;;;;;;;;;;;;;;19.53;47.89;101541.53;5107333;27;2593;-61
2022/05/05 09:19:53;;;;;;;;;;;;;;;19.71;47.40;101541.91;5114058;27;2825;-62
2022/05/05 09:22:21;;;;;;;;;;;;;;;19.88;46.77;101541.47;5121016;27;2850;-60
2022/05/05 09:24:51;;;;;;;;;;;;;;;19.93;46.45;101549.00;5120338;27;2985;-60
2022/05/05 09:27:27;;;;;;;;;;;;;;;19.97;46.38;101537.72;5117873;27;3034;-60
2022/05/05 09:30:01;;;;;;;;;;;;;;;19.95;46.22;101540.50;5123650;27;2927;-59
2022/05/05 09:32:30;;;;;;;;;;;;;;;20.18;45.87;101538.91;5127878;27;3062;-60
2022/05/05 09:34:57;;;;;;;;;;;;;;;20.23;46.11;101540.66;5122878;27;2908;-63
2022/05/05 09:37:23;;;;;;;;;;;;;;;19.90;46.49;101550.22;5120537;27;2831;-59
2022/05/05 09:39:59;;;;;;;;;;;;;;;19.79;46.33;101545.25;5119096;27;2983;-59
2022/05/05 09:42:34;;;;;;;;;;;;;;;19.90;46.08;101547.34;5122051;27;3078;-58
2022/05/05 09:45:16;;;;;;;;;;;;;;;19.98;45.96;101544.97;5114932;27;3079;-63
2022/05/05 09:47:43;;;;;;;;;;;;;;;19.99;46.06;101552.22;5112907;27;2568;-62
2022/05/05 09:50:09;;;;;;;;;;;;;;;20.12;46.08;101553.69;5107626;27;2981;-61
2022/05/05 09:58:07;;;;;;;;;;;;;;;20.45;46.01;101556.28;5096519;27;3345;-63
2022/05/05 10:00:44;;;;;;;;;;;;;;;20.44;46.31;101551.94;5113618;27;2493;-62
2022/05/05 10:05:56;;;;;;;;;;;;;;;20.42;46.14;101556.81;5122343;27;2765;-66
2022/05/05 10:08:24;;;;;;;;;;;;;;;20.53;45.96;101555.28;5090114;28;2812;-66
2022/05/05 10:10:50;;;;;;;;;;;;;;;20.50;45.78;101552.28;5099608;27;3451;-62
2022/05/05 10:13:20;;;;;;;;;;;;;;;20.36;45.73;101551.44;5100084;27;3335;-68
2022/05/05 10:15:47;;;;;;;;;;;;;;;20.44;45.94;101551.19;5105810;27;2769;-74
2022/05/05 10:18:24;;;;;;;;;;;;;;;20.68;45.46;101554.72;5101558;27;3279;-66
2022/05/05 10:20:51;;;;;;;;;;;;;;;20.77;45.26;101559.53;5125890;27;3274;-68
2022/05/05 10:23:22;;;;;;;;;;;;;;;20.81;45.37;101559.75;5107843;27;3399;-67
2022/05/05 10:25:52;;;;;;;;;;;;;;;20.79;45.35;101556.78;5109699;28;2383;-63
2022/05/05 10:28:37;;;;;;;;;;;;;;;20.83;45.42;101554.13;5098126;27;2923;-61
2022/05/05 10:31:04;;;;;;;;;;;;;;;20.86;45.84;101558.59;5118108;27;2963;-67
2022/05/05 10:33:49;;;;;;;;;;;;;;;20.96;45.54;101564.19;5094912;27;2798;-68
2022/05/05 10:36:22;;;;;;;;;;;;;;;20.95;45.65;101564.81;5118192;27;2873;-67
2022/05/05 10:38:50;;;;;;;;;;;;;;;20.94;45.79;101569.84;5112310;27;2746;-66
2022/05/05 10:41:35;;;;;;;;;;;;;;;20.92;45.83;101567.59;5127206;28;2661;-67
2022/05/05 10:44:16;;;;;;;;;;;;;;;20.92;45.99;101561.81;5118459;28;2881;-67
2022/05/05 10:46:52;;;;;;;;;;;;;;;20.94;45.97;101564.09;5120739;28;2785;-66
2022/05/05 10:49:37;;;;;;;;;;;;;;;20.97;46.19;101564.94;5115543;28;2937;-67
2022/05/05 10:52:09;;;;;;;;;;;;;;;20.98;46.26;101563.53;5122319;28;2783;-66
2022/05/05 10:54:36;;;;;;;;;;;;;;;21.00;46.09;101566.53;5114687;28;3056;-67
2022/05/05 10:57:35;;;;;;;;;;;;;;;21.00;46.13;101564.41;5115624;28;3237;-67
2022/05/05 11:00:11;;;;;;;;;;;;;;;21.03;46.05;101577.53;5100442;28;2929;-69
2022/05/05 11:02:37;;;;;;;;;;;;;;;21.02;46.19;101563.75;5113771;27;3100;-68
2022/05/05 11:05:20;;;;;;;;;;;;;;;20.98;46.26;101572.19;5105123;27;3110;-70
2022/05/05 11:07:49;;;;;;;;;;;;;;;21.03;46.40;101577.53;5113507;27;2873;-68
2022/05/05 11:10:34;;;;;;;;;;;;;;;21.07;46.39;101574.13;5115964;27;2482;-67
2022/05/05 11:13:02;;;;;;;;;;;;;;;21.11;46.17;101571.47;5118054;27;2859;-67
2022/05/05 11:23:56;;;;;;;;;;;;;;;21.10;46.98;101575.75;5072155;28;5363;-69
2022/05/05 11:26:23;;;;;;;;;;;;;;;21.10;47.11;101569.97;5075271;28;6266;-65
2022/05/05 11:28:49;;;;;;;;;;;;;;;21.12;46.94;101584.50;5070553;28;4075;-66
2022/05/05 11:31:26;;;;;;;;;;;;;;;21.18;47.04;101581.94;5075508;28;4169;-73
2022/05/05 11:33:56;;;;;;;;;;;;;;;21.25;46.75;101574.38;5070897;28;4424;-71
2022/05/05 11:36:26;;;;;;;;;;;;;;;21.23;46.77;101580.75;5090342;28;4193;-75
2022/05/05 11:38:52;;;;;;;;;;;;;;;21.28;46.94;101585.38;5077041;28;5346;-78
2022/05/05 11:41:20;;;;;;;;;;;;;;;21.34;46.37;101588.56;5086773;28;4207;-76
2022/05/05 11:46:32;;;;;;;;;;;;;;;21.28;47.05;101591.13;5123858;27;4155;-67
2022/05/05 11:48:58;;;;;;;;;;;;;;;21.15;45.23;101591.13;5118682;27;4165;-70
2022/05/05 11:51:28;;;;;;;;;;;;;;;21.17;45.66;101580.44;5121597;27;4195;-70
2022/05/05 11:54:20;;;;;;;;;;;;;;;21.24;46.48;101585.16;5116009;27;4316;-72
2022/05/05 11:56:47;;;;;;;;;;;;;;;21.28;46.26;101579.63;5111677;27;4240;-72
2022/05/05 12:02:04;;;;;;;;;;;;;;;21.28;46.02;101576.72;5115466;27;5799;-69
2022/05/05 12:04:30;;;;;;;;;;;;;;;21.28;45.92;101576.72;5121521;27;4242;-71
2022/05/05 12:06:57;;;;;;;;;;;;;;;21.33;46.04;101571.94;5106837;27;4037;-68
2022/05/05 12:09:23;;;;;;;;;;;;;;;21.41;45.94;101580.28;5116852;27;4386;-74
2022/05/05 12:11:53;;;;;;;;;;;;;;;21.40;45.90;101575.91;5124264;27;5516;-72
2022/05/05 12:14:22;;;;;;;;;;;;;;;21.41;45.55;101569.50;5118634;27;4212;-71
2022/05/05 12:16:49;;;;;;;;;;;;;;;21.36;46.14;101561.25;5123349;27;4215;-70
2022/05/05 12:19:22;;;;;;;;;;;;;;;21.33;46.57;101569.06;5115517;27;4499;-68
2022/05/05 12:22:08;;;;;;;;;;;;;;;21.48;46.33;101574.19;5123790;27;4170;-73
2022/05/05 12:24:35;;;;;;;;;;;;;;;21.44;46.00;101564.59;5117164;27;4136;-72
2022/05/05 12:27:08;;;;;;;;;;;;;;;21.44;46.28;101555.94;5123128;27;4247;-74
2022/05/05 12:29:38;;;;;;;;;;;;;;;21.42;46.05;101576.03;5117534;27;4085;-72
2022/05/05 12:32:08;;;;;;;;;;;;;;;21.41;46.29;101563.00;5120090;27;4189;-67
2022/05/05 12:34:34;;;;;;;;;;;;;;;21.43;46.34;101558.09;5118516;27;4523;-71
2022/05/05 12:37:16;;;;;;;;;;;;;;;21.37;46.33;101557.72;5119643;27;4241;-68
2022/05/05 12:39:59;;;;;;;;;;;;;;;21.41;46.54;101557.22;5107375;27;4488;-80
2022/05/05 12:42:36;;;;;;;;;;;;;;;21.38;46.13;101559.25;5108349;27;4164;-69
2022/05/05 12:45:03;;;;;;;;;;;;;;;21.25;43.82;101557.81;5117284;27;5666;-77
2022/05/05 12:47:29;;;;;;;;;;;;;;;21.29;43.40;101563.06;5112889;27;4269;-65
2022/05/05 12:49:56;;;;;;;;;;;;;;;21.22;42.86;101567.75;5105621;27;4137;-71
2022/05/05 13:00:47;;;;;;;;;;;;;;;21.29;44.13;101575.34;5129244;27;4141;-74
2022/05/05 13:03:34;;;;;;;;;;;;;;;21.27;44.34;101569.47;5150444;27;4091;-75
2022/05/05 13:06:03;;;;;;;;;;;;;;;21.26;44.30;101562.22;5150120;27;3928;-76
2022/05/05 13:09:08;;;;;;;;;;;;;;;21.25;44.37;101557.09;5139327;27;5218;-75
2022/05/05 13:11:37;;;;;;;;;;;;;;;21.23;44.42;101560.59;5134632;27;4126;-74
2022/05/05 13:14:04;;;;;;;;;;;;;;;21.24;44.42;101555.59;5132761;27;5299;-76
2022/05/05 13:16:34;;;;;;;;;;;;;;;21.27;44.68;101560.81;5146140;27;4246;-79
2022/05/05 13:19:04;;;;;;;;;;;;;;;21.29;44.78;101555.16;5142432;27;2018;-77
2022/05/05 13:21:33;;;;;;;;;;;;;;;21.27;44.61;101554.31;5111179;27;4246;-77
2022/05/05 13:23:59;;;;;;;;;;;;;;;21.27;44.73;101560.81;5116995;27;4250;-77
2022/05/05 13:26:26;;;;;;;;;;;;;;;21.27;44.92;101565.84;5113419;27;4156;-76
2022/05/05 13:28:52;;;;;;;;;;;;;;;21.23;44.57;101560.59;5113343;27;4144;-75
2022/05/05 13:31:19;;;;;;;;;;;;;;;21.21;44.82;101566.28;5112742;27;4248;-76
2022/05/05 13:33:45;;;;;;;;;;;;;;;21.21;44.96;101562.63;5115089;27;4484;-72
2022/05/05 13:36:12;;;;;;;;;;;;;;;21.31;44.66;101558.16;5108148;27;4145;-70
2022/05/05 13:38:38;;;;;;;;;;;;;;;21.41;44.58;101563.75;5109811;27;4180;-72
2022/05/05 13:41:24;;;;;;;;;;;;;;;21.42;44.50;101570.28;5111454;27;4158;-72
2022/05/05 13:43:51;;;;;;;;;;;;;;;21.42;44.00;101558.75;5112121;27;5406;-72
2022/05/05 13:46:17;;;;;;;;;;;;;;;21.40;44.15;101567.25;5109985;27;4185;-66
2022/05/05 13:48:43;;;;;;;;;;;;;;;21.39;43.53;101563.59;5109724;27;4140;-75
2022/05/05 13:51:10;;;;;;;;;;;;;;;21.38;43.28;101558.50;5114698;27;4218;-74